Airport, Ohio
Current Conditions -  °F | °C
As of 9:52 PM on Sunday 23 Nov 2014 (Local Time) from KCVG Reporting Station
Overcast Overcast  
Wind Chill: 57°   Ceiling: 1600
Heat Index: 57°   Visibility: 10mi
Dew Point: 53°   Wind: 20mph
Humidity: 87%   Direction: 150°SSE
Pressure: 29.32"   Gusts: 32mph
Location:  39.0588°N, 84.6513°W
Report Text: KCVG 240252Z 15017G28KT 10SM SCT010 BKN016 OVC038 14/12 A2932 RMK AO2 PK WND 16029/0235 RAE43 SLP924 P0004 60036 T01390117 56045
Loading
Personal Weather Stations






























Interactive Weather Map New forecast layout! Learn more

10-Day Weather Forecast

Advertisements
Track Severe Weather on mobile